| time (UTC) | temp F | wind direction | speed knots | gust knots | rain 1hr in | rain 24hr in | rain mn in | humidity % | barometer mb |
| 20260507051609 | 46 | 293 | 2.6 | 5.2 | 0.00 | 0.00 | 0.00 | 97 | 1015.4 |
| 20260507050007 | 46 | 284 | 1.7 | 2.6 | 0.00 | 0.00 | 0.00 | 96 | 1014.9 |
| 20260507044408 | 46 | 300 | 0.9 | 2.6 | 0.00 | 0.00 | 0.00 | 96 | 1014.8 |
| 20260507042808 | 46 | 282 | 0.9 | 5.2 | 0.00 | 0.00 | 0.00 | 97 | 1014.6 |
| 20260507041208 | 46 | 285 | 0.0 | 5.2 | 0.00 | 0.00 | 0.00 | 97 | 1014.4 |
| 20260507035608 | 46 | 305 | 0.9 | 5.2 | 0.00 | 0.00 | 0.00 | 98 | 1014.2 |
| 20260507034007 | 46 | 291 | 0.0 | 3.5 | 0.00 | 0.00 | 0.00 | 98 | 1014.3 |
| 20260507032409 | 46 | 289 | 2.6 | 5.2 | 0.00 | 0.00 | 0.00 | 98 | 1014.2 |
| 20260507030811 | 46 | 292 | 0.9 | 5.2 | 0.00 | 0.00 | 0.00 | 98 | 1014.2 |
| 20260507025209 | 47 | 301 | 1.7 | 5.2 | 0.00 | 0.00 | 0.00 | 97 | 1014.0 |
| 20260507023607 | 47 | 298 | 0.9 | 3.5 | 0.00 | 0.00 | 0.00 | 97 | 1013.8 |
| 20260507022010 | 47 | 298 | 2.6 | 5.2 | 0.00 | 0.01 | 0.00 | 96 | 1014.0 |
| 20260507020408 | 47 | 299 | 1.7 | 5.2 | 0.00 | 0.03 | 0.00 | 97 | 1014.0 |
| 20260507014809 | 47 | 302 | 0.0 | 3.5 | 0.00 | 0.05 | 0.00 | 98 | 1013.8 |
| 20260507013207 | 47 | 296 | 2.6 | 5.2 | 0.00 | 0.08 | 0.00 | 98 | 1013.9 |
| 20260507011608 | 47 | 301 | 0.0 | 5.2 | 0.00 | 0.09 | 0.00 | 98 | 1013.7 |
| 20260507010008 | 47 | 293 | 0.0 | 3.5 | 0.00 | 0.11 | 0.00 | 97 | 1013.6 |
| 20260507004407 | 47 | 289 | 1.7 | 7.0 | 0.00 | 0.11 | 0.00 | 96 | 1013.6 |
| 20260507002808 | 48 | 291 | 1.7 | 5.2 | 0.00 | 0.11 | 0.00 | 96 | 1013.6 |
| 20260507001208 | 48 | 276 | 1.7 | 3.5 | 0.00 | 0.11 | 0.00 | 96 | 1013.5 |
| 20260506235609 | 48 | 293 | 2.6 | 5.2 | 0.00 | 0.11 | 0.00 | 97 | 1013.4 |
| 20260506234007 | 49 | 307 | 0.9 | 3.5 | 0.00 | 0.11 | 0.00 | 97 | 1013.5 |
| 20260506232408 | 48 | 301 | 0.9 | 3.5 | 0.00 | 0.11 | 0.00 | 98 | 1013.2 |
| 20260506230811 | 49 | 293 | 1.7 | 3.5 | 0.00 | 0.11 | 0.00 | 98 | 1013.2 |
| 20260506225207 | 49 | 291 | 0.9 | 3.5 | 0.00 | 0.11 | 0.00 | 97 | 1013.1 |
| 20260506223608 | 49 | 287 | 1.7 | 3.5 | 0.00 | 0.11 | 0.00 | 97 | 1013.1 |
| 20260506222011 | 49 | 295 | 1.7 | 3.5 | 0.00 | 0.11 | 0.00 | 98 | 1012.9 |
| 20260506220407 | 50 | 301 | 0.0 | 2.6 | 0.00 | 0.11 | 0.00 | 97 | 1012.9 |
| 20260506214808 | 50 | 337 | 0.0 | 1.7 | 0.00 | 0.11 | 0.11 | 97 | 1012.9 |
| 20260506213208 | 50 | 352 | 0.9 | 5.2 | 0.00 | 0.11 | 0.11 | 97 | 1012.7 |
| 20260506211609 | 50 | 37 | 0.9 | 5.2 | 0.00 | 0.12 | 0.11 | 96 | 1012.8 |
| 20260506210007 | 51 | 352 | 1.7 | 5.2 | 0.00 | 0.12 | 0.11 | 95 | 1012.5 |
| 20260506204408 | 51 | 343 | 0.9 | 5.2 | 0.00 | 0.12 | 0.11 | 94 | 1012.3 |
| 20260506202808 | 52 | 303 | 0.0 | 5.2 | 0.00 | 0.14 | 0.11 | 93 | 1012.3 |
| 20260506201207 | 52 | 338 | 0.0 | 5.2 | 0.00 | 0.16 | 0.11 | 93 | 1012.4 |
| 20260506195609 | 53 | 305 | 2.6 | 5.2 | 0.00 | 0.18 | 0.11 | 93 | 1012.0 |
| 20260506194007 | 54 | 314 | 1.7 | 5.2 | 0.00 | 0.22 | 0.11 | 92 | 1011.8 |
| 20260506192407 | 55 | 323 | 1.7 | 2.6 | 0.00 | 0.25 | 0.11 | 89 | 1011.4 |
| 20260506190810 | 55 | 297 | 1.7 | 3.5 | 0.00 | 0.30 | 0.11 | 86 | 1011.2 |
| 20260506185207 | 56 | 274 | 0.9 | 5.2 | 0.00 | 0.36 | 0.11 | 85 | 1011.1 |
| 20260506183607 | 56 | 238 | 2.6 | 5.2 | 0.00 | 0.41 | 0.11 | 84 | 1010.8 |
| 20260506182012 | 56 | 274 | 1.7 | 3.5 | 0.00 | 0.42 | 0.11 | 84 | 1010.8 |
| 20260506180409 | 57 | 268 | 0.0 | 5.2 | 0.00 | 0.47 | 0.11 | 82 | 1010.9 |
| 20260506174810 | 57 | 274 | 0.9 | 5.2 | 0.00 | 0.51 | 0.11 | 82 | 1010.6 |
| 20260506173210 | 58 | 284 | 1.7 | 7.8 | 0.00 | 0.54 | 0.11 | 80 | 1010.3 |
| 20260506171610 | 58 | 272 | 4.3 | 7.0 | 0.00 | 0.73 | 0.11 | 78 | 1010.4 |
| 20260506170007 | 61 | 265 | 1.7 | 7.0 | 0.00 | 0.81 | 0.11 | 70 | 1010.2 |
| 20260506164406 | 62 | 257 | 5.2 | 9.6 | 0.00 | 0.81 | 0.11 | 65 | 1010.2 |
| 20260506162810 | 63 | 252 | 2.6 | 7.0 | 0.00 | 0.81 | 0.11 | 65 | 1009.9 |
| 20260506161210 | 63 | 230 | 3.5 | 7.0 | 0.00 | 0.81 | 0.11 | 62 | 1009.7 |
| 20260506155606 | 64 | 223 | 2.6 | 8.7 | 0.00 | 0.81 | 0.11 | 60 | 1010.0 |
| 20260506154008 | 64 | 251 | 1.7 | 7.0 | 0.00 | 0.81 | 0.11 | 60 | 1010.0 |
| 20260506152408 | 67 | 233 | 2.6 | 7.8 | 0.00 | 0.81 | 0.11 | 55 | 1009.8 |
| 20260506150811 | 64 | 234 | 3.5 | 10.4 | 0.00 | 0.81 | 0.11 | 58 | 1010.0 |
| 20260506145208 | 65 | 204 | 1.7 | 14.8 | 0.00 | 0.81 | 0.11 | 56 | 1009.9 |
| 20260506143607 | 64 | 244 | 2.6 | 8.7 | 0.00 | 0.81 | 0.11 | 62 | 1010.1 |
| 20260506142008 | 65 | 241 | 3.5 | 9.6 | 0.00 | 0.81 | 0.11 | 60 | 1010.0 |
| 20260506140408 | 65 | 224 | 3.5 | 7.8 | 0.00 | 0.81 | 0.11 | 62 | 1010.1 |
| 20260506134809 | 64 | 236 | 3.5 | 9.6 | 0.00 | 0.81 | 0.11 | 61 | 1009.8 |
| 20260506133206 | 64 | 218 | 3.5 | 7.8 | 0.00 | 0.81 | 0.11 | 62 | 1010.0 |
| 20260506131735 | 63 | 218 | 4.3 | 7.8 | 0.00 | 0.81 | 0.11 | 63 | 1010.0 |
| 20260506131609 | 63 | 218 | 4.3 | 7.8 | 0.00 | 0.81 | 0.11 | 63 | 1010.0 |
| 20260506130007 | 64 | 201 | 2.6 | 7.8 | 0.00 | 0.81 | 0.11 | 62 | 1010.2 |
| 20260506124406 | 63 | 219 | 2.6 | 11.3 | 0.00 | 0.81 | 0.11 | 63 | 1010.2 |
| 20260506122808 | 64 | 224 | 2.6 | 7.0 | 0.00 | 0.81 | 0.11 | 64 | 1010.3 |
| 20260506121208 | 62 | 205 | 2.6 | 8.7 | 0.00 | 0.81 | 0.11 | 66 | 1010.2 |
| 20260506115609 | 62 | 204 | 4.3 | 8.7 | 0.00 | 0.81 | 0.11 | 66 | 1010.4 |
| 20260506114008 | 63 | 212 | 4.3 | 9.6 | 0.00 | 0.81 | 0.11 | 64 | 1010.3 |
| 20260506112407 | 62 | 220 | 4.3 | 11.3 | 0.00 | 0.81 | 0.11 | 66 | 1010.3 |
| 20260506110811 | 63 | 200 | 2.6 | 8.7 | 0.00 | 0.81 | 0.11 | 63 | 1010.4 |
| 20260506105209 | 62 | 204 | 4.3 | 10.4 | 0.00 | 0.81 | 0.11 | 64 | 1010.5 |
| 20260506103609 | 60 | 199 | 4.3 | 8.7 | 0.00 | 0.81 | 0.11 | 70 | 1010.7 |
| 20260506102013 | 60 | 223 | 2.6 | 10.4 | 0.00 | 0.81 | 0.11 | 73 | 1010.6 |
| 20260506100411 | 60 | 216 | 2.6 | 14.8 | 0.00 | 0.81 | 0.11 | 72 | 1010.7 |
| 20260506094812 | 60 | 242 | 3.5 | 9.6 | 0.00 | 0.81 | 0.11 | 70 | 1010.5 |
| 20260506093209 | 59 | 216 | 2.6 | 13.0 | 0.00 | 0.81 | 0.11 | 75 | 1010.9 |
| 20260506091610 | 60 | 210 | 4.3 | 11.3 | 0.00 | 0.81 | 0.11 | 76 | 1010.6 |
| 20260506090009 | 58 | 218 | 3.5 | 10.4 | 0.00 | 0.81 | 0.11 | 81 | 1010.5 |
| 20260506084408 | 59 | 208 | 2.6 | 13.0 | 0.00 | 0.81 | 0.11 | 81 | 1010.4 |
| 20260506081209 | 56 | 216 | 2.6 | 9.6 | 0.00 | 0.81 | 0.11 | 86 | 1010.2 |
| 20260506072409 | 55 | 214 | 4.3 | 8.7 | 0.00 | 0.81 | 0.11 | 93 | 1010.2 |
| 20260506070814 | 55 | 193 | 1.7 | 8.7 | 0.00 | 0.81 | 0.11 | 94 | 1010.2 |
| 20260506062009 | 54 | 207 | 1.7 | 5.2 | 0.00 | 0.81 | 0.11 | 99 | 1010.2 |
| 20260506060412 | 53 | 209 | 2.6 | 8.7 | 0.00 | 0.81 | 0.11 | 99 | 1010.1 |